« Back
NWS Peachtree City, Ga » Text Product » AHN Terminal Aerodrome Forecast


Printer-friendly Version
Current Version              Previous Versions:   1  2  3  4  5  6  7  8  9  

Terminal Aerodrome Forecast

163
FTUS42 KFFC 012300
TAFAHN
TAF
KAHN 012320Z 0200/0224 VRB05KT P6SM VCTS SCT050CB BKN150
     FM020100 00000KT P6SM FEW050 SCT150 SCT250
     FM021400 28004KT P6SM SCT035 SCT150
     FM021800 26005KT P6SM BKN050 PROB30 0219/0223 VRB15G30KT 5SM
      TSRA BKN045CB=



USA.gov is the U.S. government's official web portal to all federal, state and local government web resources and services.